Terminal Aerodrome Forecast
Issued by NWS Cleveland, OH

Home | Current Version | Previous Version | Text Only | Print | Product List | Glossary Off
Versions: 1 2 3 4 5 6 7 8 9 10 11 12 13 14 15 16 17 18 19

319
FTUS41 KCLE 162331
TAFTOL
TAF
KTOL 162331Z 1700/1724 27016G23KT P6SM -SHSN OVC025
     FM171200 27015G25KT P6SM OVC015
     FM172000 28015G25KT P6SM BKN035=

USA.gov is the U.S. government's official web portal to all federal, state and local government web resources and services.